createdAt,value
2023-02-13T00:00:19.976Z,17.99
2023-02-13T02:00:59.753Z,37.97
2023-02-13T02:01:44.764Z,44.94
2023-02-13T02:02:30.040Z,44.94
2023-02-13T02:03:14.552Z,44.94
2023-02-13T02:03:59.928Z,44.94
2023-02-13T02:04:44.765Z,44.94
2023-02-13T02:05:29.626Z,44.94
2023-02-13T02:06:17.366Z,44.94
2023-02-13T02:07:05.472Z,44.94
2023-02-13T02:07:50.692Z,44.94
2023-02-13T02:08:35.685Z,44.94
2023-02-13T02:09:22.700Z,44.94
2023-02-13T02:10:06.016Z,44.94
2023-02-13T02:10:50.880Z,44.94
2023-02-13T02:11:32.399Z,43.94
2023-02-13T02:12:15.168Z,18.98
2023-02-13T02:13:00.237Z,8.99
2023-02-13T02:13:45.627Z,41.96
2023-02-13T02:14:30.546Z,40.96
2023-02-13T02:15:16.330Z,17.98
2023-02-13T02:16:00.430Z,17.98
2023-02-13T02:16:45.580Z,15.99
2023-02-13T02:17:29.994Z,38.97
2023-02-13T02:18:15.712Z,27.96
2023-02-13T02:19:01.037Z,26.98
2023-02-13T02:19:46.882Z,29.97
2023-02-13T02:20:30.351Z,19.98
2023-02-13T02:21:15.719Z,13.99
2023-02-13T02:22:00.772Z,10.99
2023-02-13T02:22:46.157Z,10.99
2023-02-13T02:23:30.907Z,10.99
2023-02-13T02:24:15.992Z,25.98
2023-02-13T02:25:00.653Z,42.97
2023-02-13T02:25:46.358Z,41.97
2023-02-13T02:26:30.796Z,51.96
2023-02-13T02:27:16.065Z,43.97
2023-02-13T02:28:01.425Z,42.97
2023-02-13T02:28:46.497Z,42.97
2023-02-13T02:29:31.345Z,45.97
2023-02-13T02:30:18.506Z,47.96
2023-02-13T02:31:01.474Z,45.97
2023-02-13T02:31:46.642Z,44.97
2023-02-13T02:32:31.034Z,46.95
2023-02-13T02:33:16.512Z,42.97
2023-02-13T02:34:01.805Z,43.97
2023-02-13T02:34:46.624Z,42.97
2023-02-13T02:35:31.990Z,42.97
2023-02-13T02:36:17.025Z,43.97
2023-02-13T02:37:02.530Z,43.97
2023-02-13T02:37:47.466Z,51.97
2023-02-13T02:38:32.123Z,51.97
2023-02-13T02:39:17.137Z,50.97
2023-02-13T02:40:02.124Z,52.97
2023-02-13T02:40:47.009Z,53.95
2023-02-13T02:41:31.778Z,51.97
2023-02-13T02:42:17.073Z,51.97
2023-02-13T02:43:02.143Z,53.97
2023-02-13T02:43:47.618Z,56.97
2023-02-13T02:44:31.869Z,51.97
2023-02-13T02:45:17.687Z,51.97
2023-02-13T02:46:02.810Z,51.97
2023-02-13T02:46:47.649Z,51.97
2023-02-13T02:47:32.685Z,51.97
2023-02-13T02:48:17.761Z,51.97
2023-02-13T02:49:02.978Z,51.97
2023-02-13T02:49:47.654Z,51.97
2023-02-13T02:50:33.095Z,51.97
2023-02-13T02:51:17.882Z,51.97
2023-02-13T02:52:03.235Z,51.97
2023-02-13T02:52:48.322Z,51.97
2023-02-13T02:53:33.706Z,51.97
2023-02-13T02:54:18.122Z,51.97
2023-02-13T02:55:03.453Z,51.97
2023-02-13T02:55:48.729Z,51.97
2023-02-13T02:56:33.388Z,51.97
2023-02-13T02:57:18.148Z,51.97
2023-02-13T02:58:03.473Z,51.97
2023-02-13T02:58:49.130Z,51.97
2023-02-13T02:59:33.882Z,51.97
2023-02-13T03:00:19.356Z,51.97
2023-02-13T03:01:03.903Z,51.97
2023-02-13T03:01:49.725Z,51.97
2023-02-13T03:02:34.013Z,51.97
2023-02-13T03:03:19.018Z,51.97
2023-02-13T03:04:04.357Z,51.97
2023-02-13T03:04:49.286Z,51.97
2023-02-13T03:05:34.307Z,51.97
2023-02-13T03:06:19.633Z,51.97
2023-02-13T03:07:04.148Z,51.97
2023-02-13T03:07:49.348Z,51.97
2023-02-13T03:08:34.519Z,51.97
2023-02-13T03:09:19.533Z,51.97
2023-02-13T03:10:04.818Z,51.97
2023-02-13T03:10:49.331Z,54.98
2023-02-13T03:11:34.482Z,57.98
2023-02-13T03:12:19.515Z,57.97
2023-02-13T03:13:04.612Z,57.98
2023-02-13T03:13:49.628Z,54.98
2023-02-13T03:14:34.887Z,55.98
2023-02-13T03:15:19.469Z,51.99
2023-02-13T03:16:04.591Z,46.99
2023-02-13T03:16:49.570Z,44.99
2023-02-13T03:17:34.762Z,48.99
2023-02-13T03:18:20.216Z,48.99
2023-02-13T03:19:04.948Z,48.99
2023-02-13T03:19:52.563Z,48.99
2023-02-13T03:20:39.085Z,48.99
2023-02-13T03:21:20.608Z,48.99
2023-02-13T03:22:06.844Z,48.99
2023-02-13T03:22:50.356Z,48.99
2023-02-13T03:23:36.220Z,48.99
2023-02-13T03:24:22.218Z,48.99
2023-02-13T03:25:07.595Z,48.99
2023-02-13T03:25:50.366Z,48.99
2023-02-13T03:26:35.532Z,48.99
2023-02-13T03:27:20.701Z,48.99
2023-02-13T03:28:05.788Z,48.99
2023-02-13T03:28:50.642Z,48.99
2023-02-13T03:29:35.634Z,48.99
2023-02-13T03:30:20.688Z,48.99
2023-02-13T03:31:05.623Z,48.99
2023-02-13T03:31:50.972Z,48.99
2023-02-13T03:32:35.673Z,48.99
2023-02-13T03:33:21.212Z,48.99
2023-02-13T03:34:06.568Z,48.99
2023-02-13T03:34:52.871Z,48.99
2023-02-13T03:35:35.780Z,48.99
2023-02-13T03:36:20.938Z,48.99
2023-02-13T03:37:05.995Z,48.99
2023-02-13T03:37:51.426Z,48.99
2023-02-13T03:38:36.217Z,48.99
2023-02-13T03:39:21.186Z,48.99
2023-02-13T03:40:07.409Z,48.99
2023-02-13T03:40:51.488Z,48.99
2023-02-13T03:41:36.438Z,48.99
2023-02-13T03:42:22.412Z,48.99
2023-02-13T03:43:06.749Z,48.99
2023-02-13T03:43:51.370Z,48.99
2023-02-13T03:44:38.882Z,48.99
2023-02-13T03:45:21.471Z,48.99
2023-02-13T03:46:06.704Z,48.99
2023-02-13T03:46:51.727Z,48.99
2023-02-13T03:47:36.437Z,48.99
2023-02-13T03:48:21.944Z,48.99
2023-02-13T03:49:06.640Z,48.99
2023-02-13T03:49:51.892Z,48.99
2023-02-13T03:50:36.894Z,48.99
2023-02-13T03:51:23.953Z,48.99
2023-02-13T03:52:08.964Z,48.99
2023-02-13T03:52:51.866Z,9.41
2023-02-13T03:53:36.922Z,11.17
2023-02-13T03:54:22.291Z,11.17
2023-02-13T03:55:07.105Z,11.17
2023-02-13T03:55:52.483Z,11.17
2023-02-13T03:56:37.491Z,11.17
2023-02-13T03:57:22.321Z,11.17
2023-02-13T03:58:07.617Z,11.17
2023-02-13T03:58:52.754Z,11.17
2023-02-13T03:59:37.834Z,11.17
2023-02-13T04:00:22.433Z,11.17
2023-02-13T04:01:07.852Z,11.17
2023-02-13T04:01:52.580Z,11.17
2023-02-13T04:02:37.835Z,11.17
2023-02-13T04:03:22.867Z,11.17
2023-02-13T04:04:07.916Z,11.17
2023-02-13T04:04:54.398Z,11.17
2023-02-13T04:05:41.413Z,11.17
2023-02-13T04:06:23.158Z,11.17
2023-02-13T04:07:09.782Z,11.17
2023-02-13T04:07:53.308Z,11.17
2023-02-13T04:08:38.302Z,11.17
2023-02-13T04:09:23.823Z,11.17
2023-02-13T04:10:10.758Z,11.17
2023-02-13T04:10:55.508Z,11.17
2023-02-13T04:11:40.023Z,11.17
2023-02-13T04:12:27.246Z,11.17
2023-02-13T04:13:08.297Z,16.75
2023-02-13T04:13:53.454Z,22.94
2023-02-13T04:14:40.201Z,22.94
2023-02-13T04:15:23.616Z,22.94
2023-02-13T04:16:10.670Z,22.94
2023-02-13T04:16:55.047Z,22.94
2023-02-13T04:17:40.537Z,22.94
2023-02-13T04:18:25.356Z,22.94
2023-02-13T04:19:08.744Z,22.94
2023-02-13T04:19:56.031Z,22.94
2023-02-13T04:20:40.833Z,22.94
2023-02-13T04:21:25.659Z,22.94
2023-02-13T04:22:10.686Z,22.94
2023-02-13T04:22:58.103Z,22.94
2023-02-13T04:23:41.013Z,22.94
2023-02-13T04:24:23.832Z,12.18
2023-02-13T04:25:08.934Z,12.94
2023-02-13T04:25:54.189Z,12.94
2023-02-13T04:26:39.832Z,8.49
2023-02-13T04:27:24.274Z,8.49
2023-02-13T04:28:09.513Z,8.49
2023-02-13T04:28:57.957Z,8.49
2023-02-13T04:29:39.350Z,8.49
2023-02-13T04:30:26.922Z,8.49
2023-02-13T04:31:11.386Z,8.49
2023-02-13T04:31:54.396Z,9.51
2023-02-13T04:32:41.665Z,9.51
2023-02-13T04:33:25.022Z,9.51
2023-02-13T04:34:11.510Z,9.51
2023-02-13T04:34:56.411Z,12.04
2023-02-13T04:35:39.293Z,14.89
2023-02-13T04:36:26.838Z,14.89
2023-02-13T04:37:09.798Z,14.89
2023-02-13T04:37:56.942Z,14.89
2023-02-13T04:38:40.032Z,7.72
2023-02-13T04:39:25.104Z,7.72
2023-02-13T04:40:10.323Z,7.72
2023-02-13T04:40:55.570Z,7.72
2023-02-13T04:41:40.039Z,7.72
2023-02-13T04:42:25.252Z,7.72
2023-02-13T04:43:10.499Z,7.72
2023-02-13T04:43:55.460Z,7.72
2023-02-13T04:44:40.762Z,7.72
2023-02-13T04:45:25.632Z,7.72
2023-02-13T04:46:10.706Z,7.72
2023-02-13T04:46:55.629Z,7.72
2023-02-13T04:47:40.939Z,7.72
2023-02-13T04:48:25.794Z,7.72
2023-02-13T04:49:13.667Z,7.72
2023-02-13T04:49:55.541Z,13.40
2023-02-13T04:50:41.220Z,15.00
2023-02-13T04:51:25.963Z,15.00
2023-02-13T04:52:10.611Z,10.91
2023-02-13T04:52:55.699Z,14.20
2023-02-13T04:53:40.617Z,15.49
2023-02-13T04:54:25.693Z,16.12
2023-02-13T04:55:10.944Z,15.87
2023-02-13T04:55:56.849Z,18.07
2023-02-13T04:56:41.083Z,43.98
2023-02-13T04:57:26.425Z,20.03
2023-02-13T04:58:11.372Z,50.97
2023-02-13T04:58:56.067Z,42.98
2023-02-13T04:59:41.256Z,11.94
2023-02-13T05:00:26.335Z,47.98
2023-02-13T05:01:11.405Z,52.97
2023-02-13T05:01:56.668Z,52.97
2023-02-13T05:02:41.232Z,30.41
2023-02-13T05:03:26.459Z,63.97
2023-02-13T05:04:11.669Z,64.97
2023-02-13T05:04:56.839Z,64.97
2023-02-13T05:05:41.829Z,64.97
2023-02-13T05:06:26.900Z,42.36
2023-02-13T05:07:11.842Z,66.97
2023-02-13T05:07:56.967Z,66.97
2023-02-13T05:08:42.129Z,70.96
2023-02-13T05:09:26.930Z,70.96
2023-02-13T05:10:12.580Z,68.97
2023-02-13T05:10:57.857Z,72.96
2023-02-13T05:11:42.279Z,69.96
2023-02-13T05:12:27.598Z,67.95
2023-02-13T05:13:12.548Z,66.97
2023-02-13T05:13:57.452Z,66.97
2023-02-13T05:14:42.754Z,71.98
2023-02-13T05:15:27.909Z,66.98
2023-02-13T05:16:12.428Z,67.98
2023-02-13T05:16:57.732Z,43.22
2023-02-13T05:17:43.353Z,37.59
2023-02-13T05:18:27.725Z,72.97
2023-02-13T05:19:12.993Z,69.98
2023-02-13T05:19:57.650Z,69.98
2023-02-13T05:20:43.038Z,66.98
2023-02-13T05:21:28.532Z,72.97
2023-02-13T05:22:13.793Z,66.98
2023-02-13T05:22:57.866Z,66.98
2023-02-13T05:23:43.035Z,60.98
2023-02-13T05:24:28.090Z,60.98
2023-02-13T05:25:13.525Z,57.98
2023-02-13T05:25:57.854Z,52.98
2023-02-13T05:26:43.877Z,52.98
2023-02-13T05:27:28.582Z,52.98
2023-02-13T05:28:13.369Z,52.98
2023-02-13T05:28:58.943Z,52.98
2023-02-13T05:29:43.656Z,52.98
2023-02-13T05:30:28.850Z,52.98
2023-02-13T05:31:13.987Z,52.98
2023-02-13T05:31:59.462Z,52.98
2023-02-13T05:32:43.979Z,52.98
2023-02-13T05:33:29.041Z,52.98
2023-02-13T05:34:14.180Z,52.98
2023-02-13T05:34:59.148Z,52.98
2023-02-13T05:35:44.574Z,52.98
2023-02-13T05:36:31.292Z,52.98
2023-02-13T05:37:14.120Z,52.98
2023-02-13T05:37:59.273Z,52.98
2023-02-13T05:38:44.224Z,52.98
2023-02-13T05:39:29.194Z,52.98
2023-02-13T05:40:16.065Z,52.98
2023-02-13T05:40:59.395Z,52.98
2023-02-13T05:41:46.925Z,52.98
2023-02-13T05:42:29.278Z,2.65
2023-02-13T05:43:14.465Z,6.72
2023-02-13T05:43:59.531Z,3.57
2023-02-13T05:44:44.461Z,2.51
2023-02-13T05:45:29.644Z,3.89
2023-02-13T05:46:14.492Z,2.28
2023-02-13T05:47:02.786Z,2.28
2023-02-13T05:47:45.210Z,2.28
2023-02-13T05:48:31.773Z,2.28
2023-02-13T05:49:14.886Z,2.02
2023-02-13T05:49:59.943Z,3.39
2023-02-13T05:50:44.855Z,2.71
2023-02-13T05:51:29.971Z,3.39
2023-02-13T05:52:15.092Z,5.71
2023-02-13T05:53:00.151Z,5.71
2023-02-13T05:53:45.155Z,15.60
2023-02-13T05:54:30.197Z,11.35
2023-02-13T05:55:15.323Z,42.98
2023-02-13T05:56:00.488Z,42.98
2023-02-13T05:56:45.216Z,44.98
2023-02-13T05:57:30.622Z,45.97
2023-02-13T05:58:15.471Z,21.87
2023-02-13T05:59:00.872Z,41.98
2023-02-13T05:59:45.788Z,27.99
2023-02-13T06:00:31.647Z,5.97
2023-02-13T06:01:15.650Z,6.00
2023-02-13T06:02:00.595Z,5.88
2023-02-13T06:02:46.221Z,8.00
2023-02-13T06:03:31.730Z,4.00
2023-02-13T06:04:21.365Z,3.04
2023-02-13T06:05:01.724Z,3.04
2023-02-13T06:05:46.349Z,3.04
2023-02-13T06:06:31.299Z,3.04
2023-02-13T06:07:16.182Z,3.04
2023-02-13T06:08:01.406Z,3.04
2023-02-13T06:08:46.630Z,3.04
2023-02-13T06:09:31.343Z,3.04
2023-02-13T06:10:16.395Z,3.04
2023-02-13T06:11:01.758Z,3.04
2023-02-13T06:11:48.436Z,3.04
2023-02-13T06:12:31.340Z,3.04
2023-02-13T06:13:16.299Z,3.04
2023-02-13T06:14:03.408Z,3.04
2023-02-13T06:14:48.460Z,3.04
2023-02-13T06:15:35.460Z,4.24
2023-02-13T06:16:22.023Z,4.59
2023-02-13T06:17:01.778Z,4.59
2023-02-13T06:17:50.835Z,4.59
2023-02-13T06:18:37.318Z,4.59
2023-02-13T06:19:22.223Z,4.59
2023-02-13T06:20:07.498Z,4.59
2023-02-13T06:20:52.457Z,4.59
2023-02-13T06:21:37.439Z,4.59
2023-02-13T06:22:22.554Z,4.59
2023-02-13T06:23:08.033Z,4.59
2023-02-13T06:23:52.217Z,4.59
2023-02-13T06:24:35.308Z,4.59
2023-02-13T06:25:16.732Z,4.59
2023-02-13T06:26:01.737Z,4.59
2023-02-13T06:26:47.616Z,4.59
2023-02-13T06:27:32.424Z,4.59
2023-02-13T06:28:17.884Z,4.59
2023-02-13T06:29:06.921Z,4.59
2023-02-13T06:29:52.784Z,4.59
2023-02-13T06:30:37.874Z,4.59
2023-02-13T06:31:23.598Z,4.59
2023-02-13T06:32:08.232Z,4.59
2023-02-13T06:32:53.209Z,4.59
2023-02-13T06:33:38.487Z,4.59
2023-02-13T06:34:17.765Z,4.59
2023-02-13T06:35:07.448Z,4.59
2023-02-13T06:35:53.112Z,4.59
2023-02-13T06:36:38.460Z,4.59
2023-02-13T06:37:23.830Z,4.59
2023-02-13T06:38:08.292Z,4.59
2023-02-13T06:38:53.435Z,4.59
2023-02-13T06:39:39.025Z,4.59
2023-02-13T06:40:23.704Z,4.59
2023-02-13T06:41:08.705Z,4.59
2023-02-13T06:41:53.673Z,4.59
2023-02-13T06:42:38.784Z,4.59
2023-02-13T06:43:23.713Z,4.59
2023-02-13T06:44:08.724Z,4.59
2023-02-13T06:44:53.908Z,4.59
2023-02-13T06:45:38.946Z,4.59
2023-02-13T06:46:23.952Z,4.59
2023-02-13T06:47:08.665Z,4.59
2023-02-13T06:47:54.128Z,4.59
2023-02-13T06:48:39.184Z,4.59
2023-02-13T06:49:24.336Z,4.59
2023-02-13T06:50:10.476Z,4.59
2023-02-13T06:50:54.004Z,4.59
2023-02-13T06:51:39.388Z,4.59
2023-02-13T06:52:24.522Z,4.59
2023-02-13T06:53:09.459Z,4.59
2023-02-13T06:53:49.390Z,4.59
2023-02-13T06:54:46.199Z,4.59
2023-02-13T06:55:22.690Z,4.59
2023-02-13T06:56:10.038Z,4.59
2023-02-13T06:56:54.682Z,4.59
2023-02-13T06:57:39.432Z,4.59
2023-02-13T06:58:19.217Z,4.59
2023-02-13T06:59:04.823Z,4.59
2023-02-13T06:59:49.842Z,4.59
2023-02-13T07:00:38.269Z,4.59
2023-02-13T07:01:23.591Z,4.59
2023-02-13T07:02:04.122Z,4.59
2023-02-13T07:02:50.193Z,4.59
2023-02-13T07:03:34.621Z,4.59
2023-02-13T07:04:19.730Z,4.59
2023-02-13T07:05:08.771Z,4.59
2023-02-13T07:05:55.619Z,4.59
2023-02-13T07:06:40.526Z,4.59
2023-02-13T07:07:25.378Z,4.59
2023-02-13T07:08:09.924Z,4.59
2023-02-13T07:08:50.366Z,4.59
2023-02-13T07:09:34.939Z,4.59
2023-02-13T07:10:24.059Z,4.59
2023-02-13T07:11:10.448Z,4.59
2023-02-13T07:11:55.839Z,4.59
2023-02-13T07:12:40.770Z,4.59
2023-02-13T07:13:25.642Z,4.59
2023-02-13T07:14:10.293Z,4.59
2023-02-13T07:14:55.659Z,4.59
2023-02-13T07:15:40.789Z,4.59
2023-02-13T07:16:25.703Z,4.59
2023-02-13T07:17:10.812Z,4.59
2023-02-13T07:17:56.061Z,4.59
2023-02-13T07:18:41.225Z,4.59
2023-02-13T07:19:25.975Z,4.59
2023-02-13T07:20:05.609Z,4.59
2023-02-13T07:20:50.450Z,4.59
2023-02-13T07:21:39.697Z,4.59
2023-02-13T07:22:26.084Z,4.59
2023-02-13T07:23:11.393Z,4.59
2023-02-13T07:23:56.439Z,4.59
2023-02-13T07:24:41.167Z,4.59
2023-02-13T07:25:26.605Z,4.59
2023-02-13T07:26:11.430Z,4.59
2023-02-13T07:26:56.358Z,4.59
2023-02-13T07:27:41.689Z,4.59
2023-02-13T07:28:26.285Z,4.59
2023-02-13T07:29:12.370Z,4.59
2023-02-13T07:29:56.688Z,4.59
2023-02-13T07:30:41.900Z,4.59
2023-02-13T07:31:27.108Z,4.59
2023-02-13T07:32:09.610Z,4.59
2023-02-13T07:32:55.065Z,4.59
2023-02-13T07:33:41.056Z,4.59
2023-02-13T07:34:24.232Z,4.59
2023-02-13T07:35:11.239Z,4.59
2023-02-13T07:35:52.356Z,4.59
2023-02-13T07:36:37.274Z,4.59
2023-02-13T07:37:22.420Z,4.59
2023-02-13T07:38:12.021Z,4.59
2023-02-13T07:38:54.478Z,4.59
2023-02-13T07:39:41.895Z,4.59
2023-02-13T07:40:29.794Z,4.59
2023-02-13T07:41:12.616Z,4.59
2023-02-13T07:41:51.539Z,4.59
2023-02-13T07:42:36.822Z,4.59
2023-02-13T07:43:22.060Z,4.59
2023-02-13T07:44:06.913Z,4.59
2023-02-13T07:44:52.228Z,4.59
2023-02-13T07:45:36.807Z,4.59
2023-02-13T07:46:25.994Z,4.59
2023-02-13T07:47:07.246Z,4.59
2023-02-13T07:47:52.381Z,4.59
2023-02-13T07:48:38.880Z,4.59
2023-02-13T07:49:21.775Z,45.98
2023-02-13T07:50:06.999Z,45.98
2023-02-13T07:50:51.833Z,45.97
2023-02-13T07:51:36.999Z,47.97
2023-02-13T07:52:22.313Z,50.97
2023-02-13T07:53:07.365Z,23.99
2023-02-13T07:53:58.299Z,23.99
2023-02-13T07:54:39.591Z,23.99
2023-02-13T07:55:24.457Z,23.99
2023-02-13T07:56:07.500Z,23.99
2023-02-13T07:56:52.860Z,23.99
2023-02-13T07:57:37.744Z,23.99
2023-02-13T07:58:23.012Z,23.99
2023-02-13T07:59:08.265Z,23.99
2023-02-13T07:59:53.089Z,23.99
2023-02-13T08:00:38.157Z,42.97
2023-02-13T08:01:22.845Z,4.71
2023-02-13T08:02:08.016Z,4.71
2023-02-13T08:02:52.596Z,19.99
2023-02-13T08:03:38.084Z,2.76
2023-02-13T08:04:23.895Z,16.99
2023-02-13T08:05:07.981Z,11.99
2023-02-13T08:05:53.638Z,10.99
2023-02-13T08:06:37.784Z,13.99
2023-02-13T08:07:22.824Z,45.97
2023-02-13T08:08:08.228Z,49.97
2023-02-13T08:08:53.349Z,49.97
2023-02-13T08:09:38.967Z,49.97
2023-02-13T08:10:23.409Z,15.62
2023-02-13T08:11:08.280Z,51.97
2023-02-13T08:11:53.273Z,51.97
2023-02-13T08:12:38.495Z,54.97
2023-02-13T08:13:23.380Z,57.94
2023-02-13T08:14:08.869Z,57.96
2023-02-13T08:14:53.489Z,56.97
2023-02-13T08:15:38.940Z,56.97
2023-02-13T08:16:23.870Z,57.96
2023-02-13T08:17:08.815Z,57.96
2023-02-13T08:17:53.336Z,50.97
2023-02-13T08:18:38.786Z,52.97
2023-02-13T08:19:23.737Z,52.97
2023-02-13T08:20:10.078Z,53.97
2023-02-13T08:20:54.189Z,52.95
2023-02-13T08:21:39.230Z,52.97
2023-02-13T08:22:24.158Z,52.97
2023-02-13T08:23:08.890Z,53.97
2023-02-13T08:23:54.269Z,56.94
2023-02-13T08:24:39.670Z,55.97
2023-02-13T08:25:24.460Z,53.97
2023-02-13T08:26:09.282Z,54.97
2023-02-13T08:26:54.392Z,50.97
2023-02-13T08:27:39.525Z,11.41
2023-02-13T08:28:24.995Z,53.96
2023-02-13T08:29:09.658Z,46.97
2023-02-13T08:29:54.942Z,42.97
2023-02-13T08:30:39.738Z,41.96
2023-02-13T08:31:25.010Z,44.97
2023-02-13T08:32:09.831Z,44.97
2023-02-13T08:32:54.955Z,49.96
2023-02-13T08:33:39.964Z,47.96
2023-02-13T08:34:25.673Z,47.96
2023-02-13T08:35:10.549Z,46.97
2023-02-13T08:35:55.325Z,47.96
2023-02-13T08:36:40.228Z,47.96
2023-02-13T08:37:25.037Z,46.97
2023-02-13T08:38:11.023Z,54.96
2023-02-13T08:38:55.340Z,56.97
2023-02-13T08:39:40.586Z,55.97
2023-02-13T08:40:26.064Z,55.97
2023-02-13T08:41:10.643Z,54.97
2023-02-13T08:41:55.485Z,55.97
2023-02-13T08:42:40.580Z,56.97
2023-02-13T08:43:25.594Z,56.97
2023-02-13T08:44:10.536Z,55.96
2023-02-13T08:44:55.436Z,55.96
2023-02-13T08:45:41.122Z,58.96
2023-02-13T08:46:25.685Z,56.96
2023-02-13T08:47:10.764Z,56.96
2023-02-13T08:47:55.764Z,56.96
2023-02-13T08:48:41.055Z,54.96
2023-02-13T08:49:25.702Z,54.94
2023-02-13T08:50:10.924Z,54.96
2023-02-13T08:50:56.812Z,51.96
2023-02-13T08:51:40.898Z,52.96
2023-02-13T08:52:26.105Z,50.96
2023-02-13T08:53:11.636Z,52.96
2023-02-13T08:53:56.236Z,51.95
2023-02-13T08:54:41.378Z,50.96
2023-02-13T08:55:26.067Z,53.96
2023-02-13T08:57:54.459Z,56.96
2023-02-13T08:58:38.923Z,56.96
2023-02-13T08:59:24.546Z,56.96
2023-02-13T09:00:09.230Z,64.95
2023-02-13T09:00:54.416Z,66.95
2023-02-13T09:01:39.444Z,64.95
2023-02-13T09:02:24.529Z,56.96
2023-02-13T09:03:10.360Z,62.95
2023-02-13T09:03:54.743Z,62.95
2023-02-13T09:04:39.370Z,58.96
2023-02-13T09:05:24.419Z,56.96
2023-02-13T09:06:09.757Z,62.95
2023-02-13T09:06:54.962Z,54.96
2023-02-13T09:07:39.999Z,54.96
2023-02-13T09:08:24.541Z,57.94
2023-02-13T09:09:09.691Z,53.96
2023-02-13T09:09:54.756Z,55.94
2023-02-13T09:10:39.707Z,51.96
2023-02-13T09:11:24.657Z,53.94
2023-02-13T09:12:10.025Z,51.96
2023-02-13T09:12:54.912Z,54.96
2023-02-13T09:13:40.248Z,50.96
2023-02-13T09:14:25.164Z,50.95
2023-02-13T09:15:10.247Z,50.96
2023-02-13T09:15:55.427Z,50.96
2023-02-13T09:16:40.338Z,51.96
2023-02-13T09:17:25.013Z,55.94
2023-02-13T09:18:10.532Z,56.96
2023-02-13T09:18:55.329Z,56.96
2023-02-13T09:19:40.182Z,54.96
2023-02-13T09:20:25.553Z,54.96
2023-02-13T09:21:10.398Z,55.96
2023-02-13T09:21:55.640Z,55.96
2023-02-13T09:22:40.976Z,56.96
2023-02-13T09:23:25.748Z,55.96
2023-02-13T09:24:10.907Z,56.96
2023-02-13T09:24:55.495Z,55.96
2023-02-13T09:25:40.745Z,54.96
2023-02-13T09:26:26.307Z,56.96
2023-02-13T09:27:10.552Z,54.96
2023-02-13T09:27:56.449Z,50.96
2023-02-13T09:28:42.229Z,53.96
2023-02-13T09:29:25.710Z,48.96
2023-02-13T09:30:10.926Z,57.96
2023-02-13T09:30:55.910Z,56.94
2023-02-13T09:31:41.084Z,54.96
2023-02-13T09:32:26.144Z,49.96
2023-02-13T09:33:11.475Z,53.96
2023-02-13T09:33:56.265Z,55.94
2023-02-13T09:34:41.512Z,55.96
2023-02-13T09:35:26.262Z,51.95
2023-02-13T09:36:11.664Z,54.96
2023-02-13T09:36:56.197Z,56.94
2023-02-13T09:37:41.835Z,55.96
2023-02-13T09:38:26.488Z,57.96
2023-02-13T09:39:11.805Z,56.96
2023-02-13T09:39:56.604Z,56.96
2023-02-13T09:40:41.660Z,56.96
2023-02-13T09:41:26.731Z,47.96
2023-02-13T09:42:11.872Z,48.96
2023-02-13T09:42:56.621Z,48.96
2023-02-13T09:43:42.577Z,52.97
2023-02-13T09:44:26.854Z,51.95
2023-02-13T09:45:12.307Z,51.97
2023-02-13T09:45:57.491Z,53.97
2023-02-13T09:46:42.382Z,52.97
2023-02-13T09:47:27.070Z,54.97
2023-02-13T09:48:12.244Z,54.97
2023-02-13T09:48:57.381Z,53.95
2023-02-13T09:49:42.256Z,52.97
2023-02-13T09:50:27.606Z,51.97
2023-02-13T09:51:12.573Z,51.97
2023-02-13T09:51:58.342Z,51.97
2023-02-13T09:52:42.681Z,51.97
2023-02-13T09:53:27.327Z,47.97
2023-02-13T09:54:12.388Z,48.96
2023-02-13T09:54:57.523Z,47.98
2023-02-13T09:55:42.478Z,48.98
2023-02-13T09:56:27.750Z,48.98
2023-02-13T09:57:12.923Z,53.96
2023-02-13T09:57:58.238Z,55.97
2023-02-13T09:58:43.080Z,52.97
2023-02-13T09:59:27.719Z,53.97
2023-02-13T10:00:12.863Z,56.97
2023-02-13T10:00:58.567Z,56.97
2023-02-13T10:01:43.012Z,58.97
2023-02-13T10:02:28.325Z,58.97
2023-02-13T10:03:13.771Z,57.97
2023-02-13T10:03:59.123Z,57.97
2023-02-13T10:04:43.275Z,57.97
2023-02-13T10:05:28.566Z,57.97
2023-02-13T10:06:13.372Z,57.97
2023-02-13T10:06:58.652Z,57.97
2023-02-13T10:07:43.291Z,49.97
2023-02-13T10:08:29.030Z,26.99
2023-02-13T10:09:13.609Z,26.99
2023-02-13T10:09:59.159Z,42.98
2023-02-13T10:10:43.768Z,45.98
2023-02-13T10:11:28.899Z,46.98
2023-02-13T10:12:14.103Z,47.98
2023-02-13T10:12:58.896Z,46.98
2023-02-13T10:13:43.732Z,42.98
2023-02-13T10:14:29.163Z,46.97
2023-02-13T10:15:15.149Z,47.98
2023-02-13T10:15:59.632Z,46.98
2023-02-13T10:16:44.055Z,48.98
2023-02-13T10:17:28.946Z,46.98
2023-02-13T10:18:14.403Z,43.98
2023-02-13T10:19:00.016Z,36.98
2023-02-13T10:19:44.420Z,34.98
2023-02-13T10:20:29.237Z,31.98
2023-02-13T10:21:14.343Z,32.98
2023-02-13T10:21:59.464Z,33.98
2023-02-13T10:22:44.481Z,33.98
2023-02-13T10:23:29.521Z,28.99
2023-02-13T10:24:14.623Z,27.98
2023-02-13T10:24:59.585Z,28.99
2023-02-13T10:25:44.531Z,20.99
2023-02-13T10:26:30.027Z,24.99
2023-02-13T10:27:14.444Z,18.99
2023-02-13T10:27:59.571Z,16.99
2023-02-13T10:28:44.728Z,19.99
2023-02-13T10:29:29.821Z,26.99
2023-02-13T10:30:14.924Z,21.99
2023-02-13T10:31:00.305Z,21.99
2023-02-13T10:31:44.835Z,31.99
2023-02-13T10:32:30.314Z,31.99
2023-02-13T10:33:14.644Z,23.99
2023-02-13T10:34:00.274Z,20.99
2023-02-13T10:34:45.529Z,20.99
2023-02-13T10:35:30.918Z,20.99
2023-02-13T10:36:15.554Z,29.98
2023-02-13T10:37:02.797Z,29.98
2023-02-13T10:37:45.343Z,25.98
2023-02-13T10:38:30.492Z,28.98
2023-02-13T10:39:15.803Z,19.99
2023-02-13T10:40:00.764Z,23.99
2023-02-13T10:40:45.735Z,28.97
2023-02-13T10:41:30.418Z,21.99
2023-02-13T10:42:15.808Z,19.98
2023-02-13T10:43:00.941Z,22.99
2023-02-13T10:43:46.692Z,22.99
2023-02-13T10:44:31.214Z,18.99
2023-02-13T10:45:16.201Z,25.98
2023-02-13T10:46:01.494Z,25.98
2023-02-13T10:46:46.341Z,25.98
2023-02-13T10:47:30.766Z,26.98
2023-02-13T10:48:16.358Z,27.98
2023-02-13T10:49:01.310Z,27.98
2023-02-13T10:49:46.419Z,30.98
2023-02-13T10:50:31.198Z,24.98
2023-02-13T10:51:16.258Z,24.98
2023-02-13T10:52:01.099Z,25.97
2023-02-13T10:52:46.700Z,27.98
2023-02-13T10:53:31.051Z,23.97
2023-02-13T10:54:16.255Z,31.97
2023-02-13T10:55:04.197Z,31.97
2023-02-13T10:55:51.389Z,31.97
2023-02-13T10:56:31.844Z,31.97
2023-02-13T10:57:17.025Z,12.99
2023-02-13T10:58:01.704Z,34.97
2023-02-13T10:58:47.201Z,68.94
2023-02-13T10:59:31.981Z,23.98
2023-02-13T11:00:17.084Z,12.99
2023-02-13T11:01:01.939Z,8.99
2023-02-13T11:01:47.109Z,10.99
2023-02-13T11:02:32.587Z,34.97
2023-02-13T11:03:17.259Z,22.98
2023-02-13T11:04:02.612Z,32.97
2023-02-13T11:04:47.602Z,25.97
2023-02-13T11:05:33.089Z,21.98
2023-02-13T11:06:17.535Z,20.98
2023-02-13T11:07:02.515Z,28.97
2023-02-13T11:07:47.332Z,21.98
2023-02-13T11:08:32.755Z,29.97
2023-02-13T11:09:18.073Z,29.97
2023-02-13T11:10:02.975Z,29.97
2023-02-13T11:10:48.470Z,29.97
2023-02-13T11:11:32.468Z,34.97
2023-02-13T11:12:18.023Z,34.97
2023-02-13T11:13:03.353Z,22.97
2023-02-13T11:13:48.595Z,19.98
2023-02-13T11:14:33.091Z,16.98
2023-02-13T11:15:17.746Z,16.98
2023-02-13T11:16:03.198Z,22.98
2023-02-13T11:16:48.305Z,19.97
2023-02-13T11:17:33.186Z,18.98
2023-02-13T11:18:18.719Z,20.98
2023-02-13T11:19:03.222Z,19.98
2023-02-13T11:19:49.239Z,19.98
2023-02-13T11:20:33.516Z,18.98
2023-02-13T11:21:19.419Z,18.98
2023-02-13T11:22:04.422Z,18.98
2023-02-13T11:22:49.014Z,16.98
2023-02-13T11:23:33.957Z,16.98
2023-02-13T11:24:18.971Z,16.98
2023-02-13T11:25:04.269Z,23.97
2023-02-13T11:25:48.941Z,30.97
2023-02-13T11:26:34.098Z,30.97
2023-02-13T11:27:20.220Z,35.96
2023-02-13T11:28:04.210Z,30.97
2023-02-13T11:28:49.478Z,28.96
2023-02-13T11:29:34.223Z,4.76
2023-02-13T11:30:19.078Z,14.97
2023-02-13T11:31:04.113Z,12.95
2023-02-13T11:31:49.871Z,12.95
2023-02-13T11:32:34.135Z,28.97
2023-02-13T11:33:19.558Z,32.97
2023-02-13T11:34:04.251Z,28.97
2023-02-13T11:34:49.399Z,25.97
2023-02-13T11:35:34.362Z,27.97
2023-02-13T11:36:19.341Z,26.97
2023-02-13T11:37:04.600Z,29.97
2023-02-13T11:37:49.543Z,19.98
2023-02-13T11:38:34.636Z,26.97
2023-02-13T11:39:19.668Z,48.95
2023-02-13T11:40:04.497Z,60.94
2023-02-13T11:40:49.744Z,63.93
2023-02-13T11:41:35.038Z,65.93
2023-02-13T11:42:19.768Z,63.93
2023-02-13T11:43:05.097Z,63.93
2023-02-13T11:43:50.068Z,64.93
2023-02-13T11:44:34.532Z,64.93
2023-02-13T11:45:19.810Z,70.91
2023-02-13T11:46:05.137Z,70.91